Time;durP1;ratioP1;P1;durP2;ratioP2;P2;SDS_P1;SDS_P2;PMS_P1;PMS_P2;Temp;Humidity;BMP_temperature;BMP_pressure;BME280_temperature;BME280_humidity;BME280_pressure;Samples;Min_cycle;Max_cycle;Signal;HPM_P1;HPM_P2
2022/05/05 00:02:12;;;;;;;2.57;2.23;;;19.70;37.90;;;;;;5067547;28;20479;-81
2022/05/05 00:04:42;;;;;;;2.57;2.37;;;19.70;37.90;;;;;;5067437;28;20541;-82
2022/05/05 00:07:10;;;;;;;4.20;2.40;;;19.70;38.00;;;;;;5066869;28;20457;-80
2022/05/05 00:09:38;;;;;;;5.27;2.23;;;19.60;38.00;;;;;;5066814;28;20456;-81
2022/05/05 00:14:53;;;;;;;3.90;2.07;;;19.60;38.20;;;;;;5067139;28;21009;-82
2022/05/05 00:17:21;;;;;;;2.53;2.30;;;19.50;38.10;;;;;;5067171;28;20442;-81
2022/05/05 00:19:51;;;;;;;4.73;2.20;;;19.50;38.20;;;;;;5066648;28;20540;-81
2022/05/05 00:22:19;;;;;;;2.40;2.10;;;19.40;38.30;;;;;;5067965;28;20450;-81
2022/05/05 00:24:48;;;;;;;2.77;2.17;;;19.50;38.30;;;;;;5066000;28;20524;-79
2022/05/05 00:27:16;;;;;;;2.13;2.03;;;19.50;38.20;;;;;;5066187;28;20469;-80
2022/05/05 00:29:44;;;;;;;3.33;2.20;;;19.50;38.40;;;;;;5065396;28;20467;-80
2022/05/05 00:32:12;;;;;;;2.30;2.20;;;19.50;38.40;;;;;;5066641;28;20470;-79
2022/05/05 00:34:40;;;;;;;2.30;2.10;;;19.40;38.30;;;;;;5066144;28;20471;-79
2022/05/05 00:37:10;;;;;;;2.43;2.20;;;19.40;38.40;;;;;;5066003;28;20473;-81
2022/05/05 00:39:38;;;;;;;2.10;2.00;;;19.40;38.40;;;;;;5066843;28;20493;-81
2022/05/05 00:42:10;;;;;;;3.27;2.20;;;19.40;38.40;;;;;;5064606;28;20526;-81
2022/05/05 00:44:38;;;;;;;4.27;2.00;;;19.30;38.50;;;;;;5066576;28;20470;-81
2022/05/05 00:47:07;;;;;;;2.33;2.13;;;19.30;38.60;;;;;;5065166;28;20474;-81
2022/05/05 00:49:35;;;;;;;2.23;1.90;;;19.30;38.60;;;;;;5066012;28;20458;-81
2022/05/05 00:52:03;;;;;;;3.37;2.13;;;19.30;38.60;;;;;;5065986;28;20439;-81
2022/05/05 00:54:33;;;;;;;4.50;2.30;;;19.20;38.70;;;;;;5065915;28;20495;-80
2022/05/05 00:57:01;;;;;;;2.30;2.10;;;19.20;39.30;;;;;;5066338;28;20447;-80
2022/05/05 00:59:29;;;;;;;2.30;2.20;;;19.20;38.70;;;;;;5064229;28;20474;-80
2022/05/05 01:01:57;;;;;;;3.10;2.30;;;19.20;38.80;;;;;;5066507;28;20470;-79
2022/05/05 01:04:25;;;;;;;2.50;2.27;;;19.20;38.80;;;;;;5066174;28;20472;-81
2022/05/05 01:06:53;;;;;;;2.20;2.00;;;19.10;38.80;;;;;;5067157;28;20443;-82
2022/05/05 01:09:22;;;;;;;2.80;2.00;;;19.20;38.90;;;;;;5066328;28;20467;-81
2022/05/05 01:11:52;;;;;;;3.70;2.70;;;19.10;38.90;;;;;;5067234;28;20525;-81
2022/05/05 01:14:20;;;;;;;2.67;2.40;;;19.10;38.90;;;;;;5065695;28;20473;-80
2022/05/05 01:16:48;;;;;;;2.53;2.33;;;19.10;39.00;;;;;;5064984;28;20478;-80
2022/05/05 01:19:16;;;;;;;2.20;2.00;;;19.00;39.00;;;;;;5065120;28;20470;-80
2022/05/05 01:21:53;;;;;;;2.40;2.20;;;19.00;39.10;;;;;;5064984;28;20446;-81
2022/05/05 01:28:10;;;;;;;2.17;2.07;;;19.00;39.10;;;;;;5065663;28;20471;-82
2022/05/05 01:29:55;;;;;;;2.53;2.10;;;19.00;39.10;;;;;;5066082;28;20459;-82
2022/05/05 01:32:29;;;;;;;2.93;2.23;;;19.00;39.20;;;;;;5064650;28;20446;-79
2022/05/05 01:34:57;;;;;;;2.63;2.43;;;19.00;39.20;;;;;;5064968;28;20498;-80
2022/05/05 01:37:27;;;;;;;3.53;1.97;;;18.90;39.30;;;;;;5065909;28;20508;-81
2022/05/05 01:39:55;;;;;;;2.40;2.20;;;18.90;39.20;;;;;;5066624;28;20500;-80
2022/05/05 01:42:24;;;;;;;2.60;2.40;;;18.90;39.30;;;;;;5064727;28;20443;-80
2022/05/05 01:44:52;;;;;;;3.10;2.80;;;18.90;39.30;;;;;;5065960;28;20445;-80
2022/05/05 01:47:20;;;;;;;3.10;2.37;;;18.90;39.40;;;;;;5065361;28;20442;-80
2022/05/05 01:49:50;;;;;;;2.80;2.10;;;18.90;39.40;;;;;;5064180;28;20898;-81
2022/05/05 01:52:18;;;;;;;3.47;2.77;;;18.90;39.40;;;;;;5065015;28;20466;-81
2022/05/05 01:54:48;;;;;;;2.57;2.37;;;18.80;39.40;;;;;;5064713;28;20482;-81
2022/05/05 01:57:16;;;;;;;2.00;1.90;;;18.80;39.40;;;;;;5064416;28;20447;-80
2022/05/05 01:59:44;;;;;;;2.50;2.30;;;18.80;39.50;;;;;;5063936;28;20486;-80
2022/05/05 02:02:12;;;;;;;2.83;2.53;;;18.70;39.40;;;;;;5064636;28;20469;-81
2022/05/05 02:04:40;;;;;;;2.57;2.33;;;18.80;39.60;;;;;;5064723;28;20473;-81
2022/05/05 02:07:08;;;;;;;2.43;2.23;;;18.80;39.60;;;;;;5062942;28;20501;-79
2022/05/05 02:09:36;;;;;;;3.80;2.40;;;18.70;39.60;;;;;;5064177;28;20455;-79
2022/05/05 02:12:07;;;;;;;2.53;2.30;;;18.70;39.70;;;;;;5064723;28;20454;-80
2022/05/05 02:14:36;;;;;;;3.23;2.57;;;18.70;39.60;;;;;;5063394;28;20477;-80
2022/05/05 02:17:05;;;;;;;2.70;2.50;;;18.60;39.80;;;;;;5064610;28;20466;-79
2022/05/05 02:19:33;;;;;;;3.17;2.87;;;18.60;39.80;;;;;;5065438;28;20461;-81
2022/05/05 02:22:02;;;;;;;2.87;2.60;;;18.60;40.50;;;;;;5063327;28;21007;-79
2022/05/05 02:24:30;;;;;;;3.60;2.73;;;18.60;39.80;;;;;;5051624;28;20466;-80
2022/05/05 02:26:58;;;;;;;3.13;2.83;;;18.50;39.90;;;;;;5044310;28;20439;-81
2022/05/05 02:29:27;;;;;;;3.00;2.70;;;18.50;40.00;;;;;;5058895;28;20465;-81
2022/05/05 02:31:55;;;;;;;2.60;2.40;;;18.40;40.00;;;;;;5076531;28;20902;-81
2022/05/05 02:34:28;;;;;;;3.17;2.87;;;18.40;40.00;;;;;;5084755;28;20410;-81
2022/05/05 02:39:42;;;;;;;2.83;2.63;;;18.50;39.90;;;;;;5080665;28;20458;-79
2022/05/05 02:42:13;;;;;;;4.77;2.50;;;18.40;40.00;;;;;;5063896;28;20466;-80
2022/05/05 02:44:43;;;;;;;2.63;2.40;;;18.40;40.60;;;;;;5065420;28;20506;-80
2022/05/05 02:47:11;;;;;;;2.70;2.37;;;18.40;40.10;;;;;;5063985;28;20465;-80
2022/05/05 02:49:39;;;;;;;2.93;2.50;;;18.40;40.10;;;;;;5063585;28;20466;-79
2022/05/05 02:52:07;;;;;;;3.30;3.00;;;18.30;40.10;;;;;;5064027;28;20447;-80
2022/05/05 02:54:47;;;;;;;3.23;2.80;;;18.30;40.20;;;;;;5064686;28;20642;-80
2022/05/05 02:57:15;;;;;;;2.87;2.43;;;18.30;40.20;;;;;;5062288;28;20469;-79
2022/05/05 02:59:44;;;;;;;3.17;2.70;;;18.30;40.40;;;;;;5056028;28;20478;-80
2022/05/05 03:02:12;;;;;;;2.67;2.47;;;18.20;40.40;;;;;;5063739;28;20446;-81
2022/05/05 03:04:40;;;;;;;6.67;2.77;;;18.20;40.40;;;;;;5064102;28;20465;-81
2022/05/05 03:07:08;;;;;;;2.73;2.53;;;18.20;40.40;;;;;;5064156;28;20461;-80
2022/05/05 03:09:36;;;;;;;3.27;2.50;;;18.20;40.50;;;;;;5063953;28;20470;-81
2022/05/05 03:12:05;;;;;;;3.20;2.80;;;18.10;40.50;;;;;;5063774;28;20453;-79
2022/05/05 03:14:33;;;;;;;2.80;2.60;;;18.20;40.50;;;;;;5063738;28;20445;-81
2022/05/05 03:17:03;;;;;;;6.23;2.80;;;18.20;40.60;;;;;;5063684;28;20502;-79
2022/05/05 03:19:31;;;;;;;2.90;2.70;;;18.10;40.50;;;;;;5067587;28;20467;-79
2022/05/05 03:21:59;;;;;;;3.20;2.50;;;18.10;40.60;;;;;;5067280;28;20447;-80
2022/05/05 03:24:27;;;;;;;2.90;2.70;;;18.10;40.40;;;;;;5067002;28;20493;-81
2022/05/05 03:26:55;;;;;;;3.03;2.73;;;18.10;40.60;;;;;;5067367;28;20423;-80
2022/05/05 03:29:23;;;;;;;3.37;2.43;;;18.10;40.70;;;;;;5066999;28;20455;-79
2022/05/05 03:31:51;;;;;;;2.97;2.67;;;18.00;40.80;;;;;;5064906;28;20484;-80
2022/05/05 03:34:20;;;;;;;2.80;2.57;;;18.10;40.80;;;;;;5066400;28;20446;-80
2022/05/05 03:36:49;;;;;;;5.80;2.90;;;18.00;40.80;;;;;;5066613;28;20492;-79
2022/05/05 03:39:17;;;;;;;2.57;2.47;;;18.10;40.70;;;;;;5067330;28;20560;-81
2022/05/05 03:41:45;;;;;;;2.40;2.30;;;18.00;40.70;;;;;;5068108;28;20454;-81
2022/05/05 03:44:13;;;;;;;2.80;2.60;;;18.00;40.80;;;;;;5071452;28;20474;-83
2022/05/05 03:46:41;;;;;;;2.87;2.57;;;18.00;40.80;;;;;;5069267;28;20442;-80
2022/05/05 03:49:10;;;;;;;2.70;2.50;;;18.00;41.00;;;;;;5063911;28;20490;-81
2022/05/05 03:51:39;;;;;;;5.43;3.10;;;18.00;40.90;;;;;;5049526;28;20447;-82
2022/05/05 03:54:08;;;;;;;2.97;2.67;;;17.90;41.00;;;;;;5049718;28;20443;-80
2022/05/05 03:56:36;;;;;;;4.93;2.70;;;17.90;40.80;;;;;;5049561;28;20550;-81
2022/05/05 03:59:04;;;;;;;2.83;2.63;;;17.90;41.00;;;;;;5049734;28;20471;-83
2022/05/05 04:01:32;;;;;;;2.63;2.43;;;17.90;41.10;;;;;;5049928;28;20458;-80
2022/05/05 04:04:00;;;;;;;3.07;2.73;;;17.90;41.10;;;;;;5049980;28;20450;-82
2022/05/05 04:06:28;;;;;;;3.63;2.70;;;17.90;41.20;;;;;;5069586;28;20431;-82
2022/05/05 04:08:57;;;;;;;3.83;2.63;;;17.80;41.30;;;;;;5069532;28;20520;-82
2022/05/05 04:11:26;;;;;;;2.60;2.40;;;17.80;41.10;;;;;;5071122;28;20443;-82
2022/05/05 04:13:54;;;;;;;2.53;2.40;;;17.80;41.30;;;;;;5070732;28;20565;-81
2022/05/05 04:16:22;;;;;;;2.60;2.40;;;17.80;41.30;;;;;;5069648;28;20477;-82
2022/05/05 04:18:50;;;;;;;2.63;2.40;;;17.80;41.40;;;;;;5068620;28;20478;-82
2022/05/05 04:21:18;;;;;;;3.27;3.00;;;17.80;41.40;;;;;;5069195;28;20470;-82
2022/05/05 04:23:52;;;;;;;2.93;2.73;;;17.80;41.40;;;;;;5067816;28;20462;-81
2022/05/05 04:26:22;;;;;;;2.90;2.70;;;17.80;41.30;;;;;;5069059;28;20455;-80
2022/05/05 04:28:50;;;;;;;5.50;2.70;;;17.80;41.30;;;;;;5068289;28;20470;-81
2022/05/05 04:31:19;;;;;;;2.80;2.60;;;17.80;41.30;;;;;;5069065;28;20443;-82
2022/05/05 04:33:47;;;;;;;2.70;2.50;;;17.80;41.40;;;;;;5068266;28;20442;-79
2022/05/05 04:36:15;;;;;;;3.47;2.80;;;17.80;41.40;;;;;;5067371;28;20501;-82
2022/05/05 04:38:44;;;;;;;3.20;2.90;;;17.80;41.30;;;;;;5066000;28;20474;-80
2022/05/05 04:41:12;;;;;;;2.53;2.43;;;17.80;41.40;;;;;;5061548;28;20538;-81
2022/05/05 04:43:41;;;;;;;3.07;2.80;;;17.80;41.40;;;;;;5047569;28;20444;-80
2022/05/05 04:46:09;;;;;;;3.27;2.90;;;17.80;41.50;;;;;;5047449;28;20447;-81
2022/05/05 04:48:37;;;;;;;4.73;2.90;;;17.80;41.40;;;;;;5047893;28;20513;-81
2022/05/05 04:51:06;;;;;;;3.00;2.87;;;17.80;41.40;;;;;;5047057;28;21005;-80
2022/05/05 04:53:34;;;;;;;7.63;2.50;;;17.90;41.50;;;;;;5047612;28;20470;-80
2022/05/05 04:56:02;;;;;;;3.13;2.93;;;17.90;41.50;;;;;;5049056;28;20439;-80
2022/05/05 04:58:30;;;;;;;2.80;2.60;;;17.90;41.30;;;;;;5067877;28;20434;-81
2022/05/05 05:00:59;;;;;;;5.93;3.10;;;17.90;41.40;;;;;;5068247;28;20487;-81
2022/05/05 05:03:35;;;;;;;2.93;2.80;;;17.90;41.30;;;;;;5068257;28;20983;-80
2022/05/05 05:06:04;;;;;;;2.60;2.40;;;18.00;41.50;;;;;;5068106;28;20449;-81
2022/05/05 05:08:32;;;;;;;6.43;2.87;;;17.90;41.50;;;;;;5067700;28;20496;-81
2022/05/05 05:11:00;;;;;;;2.77;2.57;;;18.00;41.50;;;;;;5067163;28;20453;-80
2022/05/05 05:13:28;;;;;;;2.63;2.43;;;18.00;41.50;;;;;;5068175;28;20465;-80
2022/05/05 05:15:56;;;;;;;2.47;2.37;;;18.00;41.50;;;;;;5068923;28;20541;-81
2022/05/05 05:18:25;;;;;;;4.40;2.40;;;18.00;41.50;;;;;;5067077;28;20520;-81
2022/05/05 05:20:54;;;;;;;3.23;2.73;;;18.10;41.40;;;;;;5067507;28;20442;-84
2022/05/05 05:23:22;;;;;;;2.57;2.47;;;18.10;41.50;;;;;;5067296;28;20529;-80
2022/05/05 05:25:50;;;;;;;2.60;2.50;;;18.10;41.40;;;;;;5067033;28;20454;-79
2022/05/05 05:28:20;;;;;;;3.57;2.43;;;18.10;41.50;;;;;;5064985;28;20451;-81
2022/05/05 05:30:48;;;;;;;3.43;2.80;;;18.10;41.50;;;;;;5066890;28;20450;-80
2022/05/05 05:33:16;;;;;;;3.17;2.87;;;18.10;41.40;;;;;;5065999;28;20446;-81
2022/05/05 05:35:46;;;;;;;5.10;2.80;;;18.10;41.50;;;;;;5066475;28;20479;-82
2022/05/05 05:38:14;;;;;;;3.37;3.07;;;18.30;41.60;;;;;;5066496;28;20471;-82
2022/05/05 05:40:42;;;;;;;2.63;2.37;;;18.20;41.40;;;;;;5065336;28;20474;-82
2022/05/05 05:43:10;;;;;;;2.93;2.67;;;18.20;41.40;;;;;;5066586;28;20453;-81
2022/05/05 05:45:38;;;;;;;3.10;2.90;;;18.30;41.50;;;;;;5064479;28;20463;-81
2022/05/05 05:48:07;;;;;;;2.83;2.63;;;18.30;41.50;;;;;;5065984;28;20443;-80
2022/05/05 05:50:35;;;;;;;3.53;2.90;;;18.40;41.60;;;;;;5065656;28;20470;-79
2022/05/05 05:53:05;;;;;;;3.40;2.67;;;18.40;41.60;;;;;;5067247;28;20517;-82
2022/05/05 05:55:33;;;;;;;4.80;2.90;;;18.40;41.50;;;;;;5068064;28;20439;-82
2022/05/05 05:58:01;;;;;;;3.30;2.40;;;18.40;41.30;;;;;;5066291;28;20473;-81
2022/05/05 06:00:30;;;;;;;3.50;2.80;;;18.50;41.50;;;;;;5065213;28;20475;-79
2022/05/05 06:05:45;;;;;;;4.50;2.50;;;18.60;41.50;;;;;;5045727;28;20474;-82
2022/05/05 06:08:17;;;;;;;3.27;2.70;;;18.60;41.30;;;;;;5047286;28;20447;-82
2022/05/05 06:10:46;;;;;;;3.20;2.87;;;18.70;41.50;;;;;;5047348;28;20478;-82
2022/05/05 06:13:14;;;;;;;4.50;2.97;;;18.70;41.30;;;;;;5046305;28;20444;-83
2022/05/05 06:15:42;;;;;;;2.70;2.50;;;18.70;41.30;;;;;;5047317;28;20455;-82
2022/05/05 06:18:10;;;;;;;2.60;2.40;;;18.80;41.40;;;;;;5050585;28;20477;-82
2022/05/05 06:20:38;;;;;;;2.87;2.70;;;18.80;41.20;;;;;;5066447;28;20470;-83
2022/05/05 06:23:07;;;;;;;3.17;2.97;;;18.80;41.10;;;;;;5066248;28;20956;-83
2022/05/05 06:25:36;;;;;;;2.90;2.70;;;18.90;41.00;;;;;;5066911;28;20453;-81
2022/05/05 06:28:05;;;;;;;6.87;2.83;;;18.90;41.00;;;;;;5067380;28;20438;-82
2022/05/05 06:30:33;;;;;;;3.23;2.70;;;19.00;41.00;;;;;;5066287;28;20489;-83
2022/05/05 06:33:01;;;;;;;2.70;2.50;;;19.00;41.00;;;;;;5067780;28;20474;-82
2022/05/05 06:35:29;;;;;;;6.33;2.67;;;19.00;40.80;;;;;;5065551;28;20450;-81
2022/05/05 06:37:58;;;;;;;3.63;2.60;;;19.10;40.80;;;;;;5058527;28;20474;-81
2022/05/05 06:40:26;;;;;;;3.10;2.80;;;19.20;40.80;;;;;;5065579;28;20466;-81
2022/05/05 06:42:56;;;;;;;3.50;2.70;;;19.20;40.70;;;;;;5067150;28;20500;-82
2022/05/05 06:45:24;;;;;;;4.80;2.30;;;19.20;40.60;;;;;;5066394;28;20439;-81
2022/05/05 06:47:52;;;;;;;8.37;2.80;;;19.30;40.60;;;;;;5066121;28;20438;-81
2022/05/05 06:50:21;;;;;;;3.30;2.90;;;19.30;40.60;;;;;;5066168;28;20478;-80
2022/05/05 06:52:50;;;;;;;3.30;3.00;;;19.30;40.50;;;;;;5062952;28;20473;-79
2022/05/05 06:55:19;;;;;;;3.10;2.90;;;19.40;40.40;;;;;;5050620;28;20443;-81
2022/05/05 06:57:47;;;;;;;3.80;2.80;;;19.40;40.40;;;;;;5050747;28;20467;-82
2022/05/05 07:00:17;;;;;;;4.60;2.53;;;19.50;40.40;;;;;;5051230;28;20481;-81
2022/05/05 07:02:45;;;;;;;2.30;2.20;;;19.50;40.40;;;;;;5050154;28;20481;-82
2022/05/05 07:05:26;;;;;;;3.03;2.63;;;19.60;40.30;;;;;;5051247;28;20451;-82
2022/05/05 07:07:54;;;;;;;2.80;2.60;;;19.60;40.20;;;;;;5065393;28;20553;-81
2022/05/05 07:13:09;;;;;;;2.70;2.30;;;19.60;40.10;;;;;;5070176;28;20538;-81
2022/05/05 07:15:40;;;;;;;2.77;2.57;;;19.70;40.10;;;;;;5070895;28;20469;-81
2022/05/05 07:18:08;;;;;;;2.70;2.50;;;19.70;40.20;;;;;;5070280;28;20466;-82
2022/05/05 07:20:39;;;;;;;3.20;2.67;;;19.80;40.20;;;;;;5070827;28;20473;-81
2022/05/05 07:23:11;;;;;;;3.20;2.30;;;19.80;40.10;;;;;;5070321;28;20508;-82
2022/05/05 07:25:40;;;;;;;2.50;2.30;;;19.90;40.10;;;;;;5068658;28;20457;-81
2022/05/05 07:28:09;;;;;;;2.63;2.43;;;19.90;40.00;;;;;;5064892;28;20442;-81
2022/05/05 07:30:38;;;;;;;2.90;2.67;;;20.00;39.90;;;;;;5058214;28;20471;-81
2022/05/05 07:33:07;;;;;;;2.70;2.50;;;20.00;39.90;;;;;;5058082;28;20406;-81
2022/05/05 07:35:37;;;;;;;2.30;2.10;;;20.00;39.90;;;;;;5069949;28;20442;-80
2022/05/05 07:38:05;;;;;;;2.63;2.43;;;20.10;39.90;;;;;;5070877;28;20516;-82
2022/05/05 07:40:34;;;;;;;2.77;2.57;;;20.10;39.80;;;;;;5069914;28;20462;-79
2022/05/05 07:43:02;;;;;;;6.37;2.50;;;20.20;39.90;;;;;;5058724;28;20413;-82
2022/05/05 07:45:30;;;;;;;2.40;2.20;;;20.30;39.90;;;;;;5069567;28;20446;-82
2022/05/05 07:48:01;;;;;;;2.67;2.47;;;20.30;39.60;;;;;;5050268;28;20439;-82
2022/05/05 07:50:30;;;;;;;2.00;1.90;;;20.40;39.80;;;;;;5050278;28;20497;-83
2022/05/05 07:52:58;;;;;;;4.50;2.40;;;20.40;39.60;;;;;;5050618;28;20475;-81
2022/05/05 07:55:26;;;;;;;4.33;2.53;;;20.40;39.60;;;;;;5049870;28;20473;-82
2022/05/05 07:57:54;;;;;;;2.50;2.20;;;20.50;39.60;;;;;;5049684;28;20447;-82
2022/05/05 08:00:23;;;;;;;2.57;2.33;;;20.50;39.40;;;;;;5065215;28;20499;-81
2022/05/05 08:02:51;;;;;;;3.53;2.20;;;20.60;39.40;;;;;;5050076;28;20455;-81
2022/05/05 08:05:21;;;;;;;3.87;2.20;;;20.70;39.50;;;;;;5049638;28;20448;-81
2022/05/05 08:07:49;;;;;;;2.73;2.53;;;20.80;39.50;;;;;;5050095;28;20432;-81
2022/05/05 08:10:18;;;;;;;5.10;2.60;;;20.80;39.20;;;;;;5049478;28;20470;-81
2022/05/05 08:12:46;;;;;;;2.83;2.53;;;20.80;39.20;;;;;;5049059;28;20443;-83
2022/05/05 08:15:16;;;;;;;2.67;2.47;;;20.90;39.20;;;;;;5049336;28;20480;-81
2022/05/05 08:17:44;;;;;;;3.13;2.20;;;20.90;39.20;;;;;;5061986;28;20455;-81
2022/05/05 08:20:13;;;;;;;2.10;2.00;;;20.90;39.00;;;;;;5068322;28;20471;-79
2022/05/05 08:22:42;;;;;;;2.20;2.00;;;21.00;39.10;;;;;;5069006;28;20421;-81
2022/05/05 08:30:42;;;;;;;4.60;3.00;;;21.20;39.00;;;;;;5068670;28;20466;-81
2022/05/05 08:33:10;;;;;;;2.60;2.40;;;21.20;38.90;;;;;;5067386;28;20455;-82
2022/05/05 08:35:40;;;;;;;2.33;2.13;;;21.20;38.90;;;;;;5068068;28;20458;-82
2022/05/05 08:38:10;;;;;;;2.97;2.67;;;21.30;38.90;;;;;;5068267;28;20477;-82
2022/05/05 08:40:40;;;;;;;2.60;2.40;;;21.40;38.80;;;;;;5067675;28;20493;-82
2022/05/05 08:43:08;;;;;;;4.60;2.27;;;21.40;38.80;;;;;;5069010;28;20458;-82
2022/05/05 08:45:37;;;;;;;2.80;2.60;;;21.50;38.80;;;;;;5067194;28;20454;-82
2022/05/05 08:48:07;;;;;;;2.20;2.00;;;21.50;38.80;;;;;;5067982;28;20457;-81
2022/05/05 08:50:36;;;;;;;2.57;2.37;;;21.60;38.80;;;;;;5065629;28;20478;-81
2022/05/05 08:53:05;;;;;;;2.70;2.50;;;21.60;38.70;;;;;;5055472;28;20418;-79
2022/05/05 08:55:35;;;;;;;2.43;2.23;;;21.60;38.60;;;;;;5047443;28;20458;-82
2022/05/05 08:58:04;;;;;;;2.73;2.13;;;21.70;38.60;;;;;;5047789;28;20443;-81
2022/05/05 09:00:32;;;;;;;2.50;2.30;;;21.80;38.70;;;;;;5042217;28;20510;-81
2022/05/05 09:03:04;;;;;;;2.60;2.40;;;21.90;38.60;;;;;;5050043;28;20478;-82
2022/05/05 09:05:51;;;;;;;3.17;2.13;;;21.90;38.60;;;;;;5052306;28;20448;-78
2022/05/05 09:08:33;;;;;;;2.40;2.20;;;22.00;38.60;;;;;;5048135;28;20447;-80
2022/05/05 09:11:03;;;;;;;2.60;2.37;;;22.00;38.30;;;;;;5046873;28;20497;-80
2022/05/05 09:13:34;;;;;;;2.73;2.10;;;22.00;38.30;;;;;;5044344;28;20447;-78
2022/05/05 09:16:03;;;;;;;3.90;2.80;;;22.10;38.20;;;;;;5046379;28;20519;-81
2022/05/05 09:18:32;;;;;;;2.73;2.53;;;22.20;38.40;;;;;;5045373;28;20443;-81
2022/05/05 09:21:01;;;;;;;2.20;2.10;;;22.20;38.20;;;;;;5047895;28;20463;-79
2022/05/05 09:23:31;;;;;;;3.73;2.17;;;22.30;38.20;;;;;;5056940;28;20439;-79
2022/05/05 09:25:59;;;;;;;2.67;2.47;;;22.30;38.10;;;;;;5044305;28;20454;-81
2022/05/05 09:28:31;;;;;;;2.57;2.37;;;22.40;38.10;;;;;;5044598;28;20449;-81
2022/05/05 09:31:04;;;;;;;3.87;2.50;;;22.40;38.00;;;;;;5051918;28;20469;-81
2022/05/05 09:33:43;;;;;;;2.43;2.20;;;22.50;37.90;;;;;;5065794;28;20471;-80
2022/05/05 09:36:11;;;;;;;2.03;1.93;;;22.50;37.80;;;;;;5066215;28;20884;-80
2022/05/05 09:38:54;;;;;;;3.87;2.57;;;22.50;37.70;;;;;;5064774;28;20942;-80
2022/05/05 09:41:23;;;;;;;1.77;1.67;;;22.60;37.60;;;;;;5059522;28;20418;-82
2022/05/05 09:43:54;;;;;;;2.50;2.30;;;22.60;37.50;;;;;;5048011;28;20414;-79
2022/05/05 09:46:32;;;;;;;2.80;2.40;;;22.70;37.50;;;;;;5047646;28;20467;-79
2022/05/05 09:49:08;;;;;;;7.47;2.13;;;22.80;37.40;;;;;;5062136;28;20462;-79
2022/05/05 09:51:44;;;;;;;2.13;2.03;;;23.00;37.50;;;;;;5067044;28;20472;-79
2022/05/05 09:59:48;;;;;;;2.43;2.10;;;23.60;37.00;;;;;;5047412;28;20911;-80
2022/05/05 10:04:00;;;;;;;1.97;1.70;;;23.80;36.90;;;;;;5046960;28;20458;-81
2022/05/05 10:05:17;;;;;;;2.50;2.20;;;24.10;37.00;;;;;;5048238;28;20440;-81
2022/05/05 10:07:45;;;;;;;2.77;2.57;;;24.50;36.90;;;;;;5049678;28;20458;-81
2022/05/05 10:10:16;;;;;;;1.90;1.80;;;24.80;36.70;;;;;;5066150;28;20459;-79
2022/05/05 10:12:44;;;;;;;2.13;1.73;;;25.10;36.50;;;;;;5064962;28;20504;-79
2022/05/05 10:15:14;;;;;;;1.83;1.73;;;25.40;36.10;;;;;;5052203;28;20398;-79
2022/05/05 10:17:42;;;;;;;3.07;1.90;;;25.70;35.80;;;;;;5065421;28;20417;-79
2022/05/05 10:20:12;;;;;;;1.70;1.60;;;25.90;35.40;;;;;;5065572;28;20465;-80
2022/05/05 10:22:46;;;;;;;2.40;2.20;;;26.20;35.30;;;;;;5065269;28;20425;-80
2022/05/05 10:25:16;;;;;;;2.00;1.90;;;26.50;35.10;;;;;;5065648;28;20981;-79
2022/05/05 10:27:45;;;;;;;2.67;2.10;;;26.80;34.60;;;;;;5059312;28;20520;-79
2022/05/05 10:30:17;;;;;;;2.00;1.90;;;27.00;34.30;;;;;;5064817;28;20456;-79
2022/05/05 10:32:45;;;;;;;2.10;2.00;;;27.20;34.00;;;;;;5065177;28;20431;-79
2022/05/05 10:35:24;;;;;;;3.70;2.07;;;27.40;33.90;;;;;;5056576;28;20442;-80
2022/05/05 10:37:53;;;;;;;2.73;1.83;;;27.60;33.80;;;;;;5060738;28;20436;-80
2022/05/05 10:40:23;;;;;;;2.30;2.07;;;27.80;33.60;;;;;;5062658;28;20539;-80
2022/05/05 10:42:51;;;;;;;2.20;1.80;;;28.00;33.50;;;;;;5061908;28;20413;-79
2022/05/05 10:45:31;;;;;;;3.00;1.73;;;28.20;33.20;;;;;;5044639;28;20470;-81
2022/05/05 10:48:10;;;;;;;2.23;2.00;;;28.40;33.10;;;;;;5060107;28;20424;-80
2022/05/05 10:50:39;;;;;;;5.40;2.03;;;28.70;32.70;;;;;;5060902;28;20489;-80
2022/05/05 10:53:08;;;;;;;2.10;1.70;;;29.00;32.60;;;;;;5058611;28;20442;-79
2022/05/05 10:55:43;;;;;;;1.80;1.70;;;29.20;32.40;;;;;;5052628;28;20450;-82
2022/05/05 10:59:02;;;;;;;1.80;1.70;;;29.50;31.90;;;;;;5060187;28;20446;-80
2022/05/05 11:01:33;;;;;;;1.50;1.50;;;29.60;31.60;;;;;;5058833;28;20498;-80
2022/05/05 11:04:28;;;;;;;1.90;1.77;;;29.70;31.50;;;;;;5056592;28;20492;-80
2022/05/05 11:07:38;;;;;;;1.67;1.50;;;29.80;31.40;;;;;;5053370;28;20438;-81
2022/05/05 11:10:08;;;;;;;2.80;1.80;;;30.00;31.20;;;;;;5056606;28;20481;-82
2022/05/05 11:12:37;;;;;;;2.17;1.90;;;30.20;31.10;;;;;;5053516;28;20449;-80
2022/05/05 11:23:42;;;;;;;1.50;1.40;;;31.80;29.70;;;;;;5056691;28;20520;-81
2022/05/05 11:26:12;;;;;;;1.67;1.57;;;32.30;29.30;;;;;;5049920;28;20431;-81
2022/05/05 11:28:40;;;;;;;1.97;1.70;;;33.10;28.80;;;;;;5055678;28;20540;-80
2022/05/05 11:31:22;;;;;;;1.40;1.30;;;33.40;28.00;;;;;;5057745;28;20450;-80
2022/05/05 11:33:56;;;;;;;1.33;1.23;;;33.70;27.80;;;;;;5064066;28;20458;-79
2022/05/05 11:36:27;;;;;;;1.63;1.53;;;33.90;27.80;;;;;;5052299;28;20926;-80
2022/05/05 11:38:56;;;;;;;1.93;1.50;;;34.00;27.50;;;;;;5048401;28;20545;-79
2022/05/05 11:41:24;;;;;;;1.30;1.30;;;34.00;27.30;;;;;;5064031;28;20547;-79
2022/05/05 11:46:38;;;;;;;1.67;1.57;;;33.60;27.60;;;;;;5062860;28;20506;-79
2022/05/05 11:49:08;;;;;;;1.73;1.63;;;34.00;27.70;;;;;;5060831;28;20470;-79
2022/05/05 11:51:37;;;;;;;1.90;1.50;;;34.70;27.40;;;;;;5045756;28;20443;-79
2022/05/05 11:54:07;;;;;;;1.50;1.40;;;35.50;26.80;;;;;;5045880;28;20443;-79
2022/05/05 11:56:36;;;;;;;2.43;1.20;;;36.40;25.80;;;;;;5045174;28;20454;-79
2022/05/05 12:02:05;;;;;;;2.90;1.93;;;37.80;24.70;;;;;;5045530;28;20470;-80
2022/05/05 12:04:36;;;;;;;1.40;1.30;;;38.10;24.90;;;;;;5044913;28;20447;-80
2022/05/05 12:07:04;;;;;;;1.47;1.37;;;38.70;24.60;;;;;;5046124;28;20443;-80
2022/05/05 12:09:32;;;;;;;2.10;1.20;;;38.70;23.90;;;;;;5063056;28;20466;-80
2022/05/05 12:12:15;;;;;;;1.20;1.10;;;38.40;23.90;;;;;;5065034;28;20435;-80
2022/05/05 12:14:44;;;;;;;1.40;1.30;;;39.10;23.90;;;;;;5063801;28;21022;-80
2022/05/05 12:17:14;;;;;;;1.27;1.27;;;39.40;23.40;;;;;;5045457;28;20478;-80
2022/05/05 12:19:48;;;;;;;1.50;0.93;;;39.00;23.50;;;;;;5044426;28;20444;-80
2022/05/05 12:22:21;;;;;;;1.53;1.20;;;38.70;23.90;;;;;;5044606;28;20490;-80
2022/05/05 12:24:52;;;;;;;1.00;1.00;;;39.00;23.90;;;;;;5050379;28;20627;-80
2022/05/05 12:27:23;;;;;;;1.10;1.10;;;38.90;24.20;;;;;;5068673;28;20446;-82
2022/05/05 12:29:51;;;;;;;1.03;0.90;;;39.20;24.00;;;;;;5058331;28;20466;-81
2022/05/05 12:32:20;;;;;;;1.37;1.27;;;39.00;23.60;;;;;;5076731;28;20447;-83
2022/05/05 12:34:50;;;;;;;1.10;1.00;;;38.60;24.00;;;;;;5077167;28;20428;-83
2022/05/05 12:37:19;;;;;;;1.00;1.00;;;38.40;24.10;;;;;;5077554;28;20435;-83
2022/05/05 12:39:57;;;;;;;1.30;1.20;;;38.10;24.50;;;;;;5071271;28;20458;-81
2022/05/05 12:42:37;;;;;;;1.20;1.20;;;38.10;24.50;;;;;;5069239;28;20477;-82
2022/05/05 12:45:06;;;;;;;1.20;1.20;;;38.60;24.60;;;;;;5059448;28;20457;-79
2022/05/05 12:47:38;;;;;;;1.10;1.10;;;39.20;24.10;;;;;;5064451;28;20467;-79
2022/05/05 12:50:30;;;;;;;1.80;1.10;;;39.70;23.50;;;;;;5056681;28;20489;-77
2022/05/05 13:01:22;;;;;;;1.10;1.10;;;41.10;22.50;;;;;;5054218;28;20477;-77
2022/05/05 13:03:52;;;;;;;1.83;0.90;;;42.00;22.40;;;;;;5053796;28;20437;-77
2022/05/05 13:06:22;;;;;;;0.90;0.90;;;42.30;21.50;;;;;;5054078;28;20446;-77
2022/05/05 13:08:51;;;;;;;0.90;0.80;;;41.60;21.70;;;;;;5052725;28;20872;-77
2022/05/05 13:11:19;;;;;;;1.20;1.10;;;41.30;22.40;;;;;;5052495;28;20438;-77
2022/05/05 13:13:47;;;;;;;0.97;0.97;;;40.50;22.40;;;;;;5052948;28;20462;-77
2022/05/05 13:16:15;;;;;;;1.00;1.00;;;39.80;22.80;;;;;;5059172;28;20510;-79
2022/05/05 13:18:44;;;;;;;1.10;1.10;;;39.20;23.40;;;;;;5057207;28;20985;-79
2022/05/05 13:21:12;;;;;;;1.10;1.10;;;38.80;24.00;;;;;;5059694;28;20501;-79
2022/05/05 13:23:41;;;;;;;4.20;1.07;;;38.50;24.10;;;;;;5059502;28;20473;-79
2022/05/05 13:26:11;;;;;;;1.30;1.20;;;38.20;24.40;;;;;;5058809;28;20469;-79
2022/05/05 13:28:39;;;;;;;1.20;1.20;;;37.80;24.60;;;;;;5058542;28;20514;-80
2022/05/05 13:31:07;;;;;;;6.00;1.47;;;37.50;24.90;;;;;;5059003;28;20435;-80
2022/05/05 13:33:35;;;;;;;1.27;1.20;;;37.10;25.20;;;;;;5044982;28;20875;-79
2022/05/05 13:36:04;;;;;;;1.03;1.03;;;36.80;25.60;;;;;;5039660;28;20447;-80
2022/05/05 13:38:32;;;;;;;1.53;1.43;;;36.50;25.80;;;;;;5044469;28;20490;-79
2022/05/05 13:41:21;;;;;;;1.30;1.20;;;36.30;26.10;;;;;;5043179;28;20469;-79
2022/05/05 13:43:49;;;;;;;1.93;1.20;;;36.00;26.50;;;;;;5040661;28;20448;-79
2022/05/05 13:46:18;;;;;;;1.57;1.10;;;35.70;26.60;;;;;;5040226;28;20447;-79
2022/05/05 13:48:46;;;;;;;2.13;1.20;;;35.50;26.80;;;;;;5038907;28;20475;-78
2022/05/05 13:51:14;;;;;;;1.37;1.30;;;35.40;27.10;;;;;;5040343;28;20458;-79